sensor_id;sensor_type;location;lat;lon;timestamp;pressure;altitude;pressure_sealevel;temperature;humidity
25420;BME280;13354;48.174;11.566;2022-10-31T00:02:18;96156.41;;;14.10;81.43
25420;BME280;13354;48.174;11.566;2022-10-31T00:04:43;96158.06;;;14.11;81.46
25420;BME280;13354;48.174;11.566;2022-10-31T00:07:09;96157.63;;;14.14;81.48
25420;BME280;13354;48.174;11.566;2022-10-31T00:09:35;96160.75;;;14.31;80.87
25420;BME280;13354;48.174;11.566;2022-10-31T00:12:00;96158.28;;;14.42;80.31
25420;BME280;13354;48.174;11.566;2022-10-31T00:14:25;96161.41;;;14.72;79.11
25420;BME280;13354;48.174;11.566;2022-10-31T00:16:50;96162.44;;;14.65;79.16
25420;BME280;13354;48.174;11.566;2022-10-31T00:19:16;96157.09;;;14.71;79.08
25420;BME280;13354;48.174;11.566;2022-10-31T00:21:41;96162.44;;;14.78;78.76
25420;BME280;13354;48.174;11.566;2022-10-31T00:24:07;96153.41;;;14.86;78.39
25420;BME280;13354;48.174;11.566;2022-10-31T00:26:32;96158.34;;;14.56;79.02
25420;BME280;13354;48.174;11.566;2022-10-31T00:28:58;96157.50;;;14.48;79.41
25420;BME280;13354;48.174;11.566;2022-10-31T00:31:24;96152.19;;;14.55;79.15
25420;BME280;13354;48.174;11.566;2022-10-31T00:33:49;96158.28;;;14.42;79.62
25420;BME280;13354;48.174;11.566;2022-10-31T00:36:16;96156.25;;;14.31;80.13
25420;BME280;13354;48.174;11.566;2022-10-31T00:38:43;96161.38;;;14.33;80.14
25420;BME280;13354;48.174;11.566;2022-10-31T00:41:10;96159.56;;;14.53;79.65
25420;BME280;13354;48.174;11.566;2022-10-31T00:43:35;96155.25;;;14.65;79.29
25420;BME280;13354;48.174;11.566;2022-10-31T00:46:00;96149.69;;;14.47;79.48
25420;BME280;13354;48.174;11.566;2022-10-31T00:48:26;96150.13;;;14.50;79.12
25420;BME280;13354;48.174;11.566;2022-10-31T00:50:51;96161.19;;;14.67;78.47
25420;BME280;13354;48.174;11.566;2022-10-31T00:53:16;96155.47;;;14.64;78.48
25420;BME280;13354;48.174;11.566;2022-10-31T00:55:42;96162.63;;;14.43;79.28
25420;BME280;13354;48.174;11.566;2022-10-31T00:58:07;96160.53;;;14.32;79.69
25420;BME280;13354;48.174;11.566;2022-10-31T01:00:32;96156.63;;;14.28;79.89
25420;BME280;13354;48.174;11.566;2022-10-31T01:02:58;96156.66;;;14.35;79.67
25420;BME280;13354;48.174;11.566;2022-10-31T01:05:23;96150.72;;;14.26;79.96
25420;BME280;13354;48.174;11.566;2022-10-31T01:07:48;96146.81;;;14.35;79.85
25420;BME280;13354;48.174;11.566;2022-10-31T01:10:14;96150.97;;;14.51;78.71
25420;BME280;13354;48.174;11.566;2022-10-31T01:12:41;96151.75;;;14.38;79.26
25420;BME280;13354;48.174;11.566;2022-10-31T01:15:08;96151.34;;;14.41;79.48
25420;BME280;13354;48.174;11.566;2022-10-31T01:17:34;96146.63;;;14.30;79.55
25420;BME280;13354;48.174;11.566;2022-10-31T01:19:59;96156.03;;;14.26;79.81
25420;BME280;13354;48.174;11.566;2022-10-31T01:22:25;96154.56;;;14.17;79.94
25420;BME280;13354;48.174;11.566;2022-10-31T01:24:50;96156.81;;;14.13;80.24
25420;BME280;13354;48.174;11.566;2022-10-31T01:27:15;96151.91;;;14.04;80.40
25420;BME280;13354;48.174;11.566;2022-10-31T01:29:40;96152.50;;;14.06;80.54
25420;BME280;13354;48.174;11.566;2022-10-31T01:32:06;96158.06;;;14.04;80.79
25420;BME280;13354;48.174;11.566;2022-10-31T01:34:31;96155.41;;;14.11;80.36
25420;BME280;13354;48.174;11.566;2022-10-31T01:36:56;96159.91;;;14.10;80.30
25420;BME280;13354;48.174;11.566;2022-10-31T01:39:22;96162.75;;;14.09;80.48
25420;BME280;13354;48.174;11.566;2022-10-31T01:41:52;96148.41;;;14.10;80.19
25420;BME280;13354;48.174;11.566;2022-10-31T01:46:54;96154.59;;;14.10;80.48
25420;BME280;13354;48.174;11.566;2022-10-31T01:52:01;96147.41;;;14.11;80.46
25420;BME280;13354;48.174;11.566;2022-10-31T01:54:32;96149.47;;;14.15;80.20
25420;BME280;13354;48.174;11.566;2022-10-31T01:57:01;96151.91;;;14.04;79.92
25420;BME280;13354;48.174;11.566;2022-10-31T01:59:30;96150.03;;;13.97;80.09
25420;BME280;13354;48.174;11.566;2022-10-31T02:01:56;96153.31;;;13.93;80.44
25420;BME280;13354;48.174;11.566;2022-10-31T02:04:23;96153.31;;;13.93;80.60
25420;BME280;13354;48.174;11.566;2022-10-31T02:06:56;96143.47;;;13.87;80.58
25420;BME280;13354;48.174;11.566;2022-10-31T02:09:23;96142.00;;;13.84;80.84
25420;BME280;13354;48.174;11.566;2022-10-31T02:11:54;96146.50;;;13.77;81.10
25420;BME280;13354;48.174;11.566;2022-10-31T02:14:22;96149.16;;;13.77;80.85
25420;BME280;13354;48.174;11.566;2022-10-31T02:16:48;96144.41;;;13.66;81.22
25420;BME280;13354;48.174;11.566;2022-10-31T02:19:19;96149.72;;;13.66;81.38
25420;BME280;13354;48.174;11.566;2022-10-31T02:22:00;96149.16;;;13.70;81.43
25420;BME280;13354;48.174;11.566;2022-10-31T02:24:42;96144.88;;;13.83;80.44
25420;BME280;13354;48.174;11.566;2022-10-31T02:27:21;96151.00;;;13.70;80.86
25420;BME280;13354;48.174;11.566;2022-10-31T02:37:50;96150.38;;;13.68;80.51
25420;BME280;13354;48.174;11.566;2022-10-31T02:40:27;96148.91;;;13.65;80.54
25420;BME280;13354;48.174;11.566;2022-10-31T02:43:02;96151.94;;;13.49;80.63
25420;BME280;13354;48.174;11.566;2022-10-31T02:45:42;96155.38;;;13.43;80.99
25420;BME280;13354;48.174;11.566;2022-10-31T02:48:11;96148.59;;;13.34;81.44
25420;BME280;13354;48.174;11.566;2022-10-31T02:50:42;96157.28;;;13.21;82.02
25420;BME280;13354;48.174;11.566;2022-10-31T02:53:08;96167.69;;;13.16;82.35
25420;BME280;13354;48.174;11.566;2022-10-31T02:58:09;96158.53;;;13.18;82.78
25420;BME280;13354;48.174;11.566;2022-10-31T03:01:02;96159.09;;;13.14;82.50
25420;BME280;13354;48.174;11.566;2022-10-31T03:03:57;96164.44;;;13.20;82.48
25420;BME280;13354;48.174;11.566;2022-10-31T03:06:32;96155.25;;;13.23;82.05
25420;BME280;13354;48.174;11.566;2022-10-31T03:14:58;96149.84;;;13.38;81.40
25420;BME280;13354;48.174;11.566;2022-10-31T03:19:59;96150.88;;;13.43;80.96
25420;BME280;13354;48.174;11.566;2022-10-31T03:22:29;96154.13;;;13.39;80.79
25420;BME280;13354;48.174;11.566;2022-10-31T03:24:57;96157.63;;;13.39;81.00
25420;BME280;13354;48.174;11.566;2022-10-31T03:27:25;96157.22;;;13.42;81.41
25420;BME280;13354;48.174;11.566;2022-10-31T03:29:56;96152.53;;;13.44;81.36
25420;BME280;13354;48.174;11.566;2022-10-31T03:32:29;96153.97;;;13.47;81.24
25420;BME280;13354;48.174;11.566;2022-10-31T03:34:57;96151.91;;;13.42;80.47
25420;BME280;13354;48.174;11.566;2022-10-31T03:37:26;96153.78;;;13.48;80.41
25420;BME280;13354;48.174;11.566;2022-10-31T03:39:54;96151.22;;;13.27;80.16
25420;BME280;13354;48.174;11.566;2022-10-31T03:42:24;96161.63;;;13.22;80.65
25420;BME280;13354;48.174;11.566;2022-10-31T03:44:55;96159.09;;;13.14;81.12
25420;BME280;13354;48.174;11.566;2022-10-31T03:47:21;96162.13;;;13.04;81.18
25420;BME280;13354;48.174;11.566;2022-10-31T03:49:47;96149.22;;;13.01;81.24
25420;BME280;13354;48.174;11.566;2022-10-31T03:52:26;96153.47;;;12.95;81.57
25420;BME280;13354;48.174;11.566;2022-10-31T03:55:06;96156.91;;;12.89;81.97
25420;BME280;13354;48.174;11.566;2022-10-31T03:57:41;96158.13;;;12.87;82.27
25420;BME280;13354;48.174;11.566;2022-10-31T04:00:14;96157.88;;;12.81;82.31
25420;BME280;13354;48.174;11.566;2022-10-31T04:02:44;96159.97;;;12.86;82.44
25420;BME280;13354;48.174;11.566;2022-10-31T04:05:12;96162.22;;;12.89;82.43
25420;BME280;13354;48.174;11.566;2022-10-31T04:07:42;96157.72;;;12.90;82.53
25420;BME280;13354;48.174;11.566;2022-10-31T04:10:12;96166.38;;;12.98;82.41
25420;BME280;13354;48.174;11.566;2022-10-31T04:12:39;96153.47;;;12.95;82.47
25420;BME280;13354;48.174;11.566;2022-10-31T04:15:07;96156.97;;;13.02;82.33
25420;BME280;13354;48.174;11.566;2022-10-31T04:17:39;96159.47;;;13.04;82.35
25420;BME280;13354;48.174;11.566;2022-10-31T04:20:06;96166.03;;;13.08;82.16
25420;BME280;13354;48.174;11.566;2022-10-31T04:22:31;96159.91;;;13.14;82.16
25420;BME280;13354;48.174;11.566;2022-10-31T04:24:57;96151.31;;;13.12;81.95
25420;BME280;13354;48.174;11.566;2022-10-31T04:27:22;96153.75;;;13.07;82.05
25420;BME280;13354;48.174;11.566;2022-10-31T04:29:47;96158.22;;;13.00;81.57
25420;BME280;13354;48.174;11.566;2022-10-31T04:32:13;96157.38;;;12.99;81.82
25420;BME280;13354;48.174;11.566;2022-10-31T04:34:38;96166.72;;;12.89;81.68
25420;BME280;13354;48.174;11.566;2022-10-31T04:37:03;96163.00;;;12.83;81.44
25420;BME280;13354;48.174;11.566;2022-10-31T04:39:29;96167.44;;;12.76;81.17
25420;BME280;13354;48.174;11.566;2022-10-31T04:41:54;96160.88;;;12.72;81.22
25420;BME280;13354;48.174;11.566;2022-10-31T04:44:19;96163.47;;;12.65;81.69
25420;BME280;13354;48.174;11.566;2022-10-31T04:46:45;96163.63;;;12.57;82.25
25420;BME280;13354;48.174;11.566;2022-10-31T04:49:10;96172.63;;;12.56;82.47
25420;BME280;13354;48.174;11.566;2022-10-31T04:51:35;96167.41;;;12.48;82.76
25420;BME280;13354;48.174;11.566;2022-10-31T04:54:01;96177.03;;;12.49;83.03
25420;BME280;13354;48.174;11.566;2022-10-31T04:56:26;96175.38;;;12.48;82.85
25420;BME280;13354;48.174;11.566;2022-10-31T04:58:52;96165.34;;;12.43;82.84
25420;BME280;13354;48.174;11.566;2022-10-31T05:01:17;96167.38;;;12.41;83.22
25420;BME280;13354;48.174;11.566;2022-10-31T05:03:42;96174.50;;;12.41;83.49
25420;BME280;13354;48.174;11.566;2022-10-31T05:06:07;96167.56;;;12.40;83.68
25420;BME280;13354;48.174;11.566;2022-10-31T05:08:33;96165.69;;;12.33;83.23
25420;BME280;13354;48.174;11.566;2022-10-31T05:11:02;96166.88;;;12.31;83.48
25420;BME280;13354;48.174;11.566;2022-10-31T05:13:28;96163.66;;;12.36;83.24
25420;BME280;13354;48.174;11.566;2022-10-31T05:15:54;96160.53;;;12.32;82.86
25420;BME280;13354;48.174;11.566;2022-10-31T05:18:19;96162.53;;;12.23;83.15
25420;BME280;13354;48.174;11.566;2022-10-31T05:20:44;96161.06;;;12.21;83.11
25420;BME280;13354;48.174;11.566;2022-10-31T05:23:10;96163.47;;;12.16;83.33
25420;BME280;13354;48.174;11.566;2022-10-31T05:25:35;96155.44;;;12.09;83.45
25420;BME280;13354;48.174;11.566;2022-10-31T05:28:00;96152.97;;;12.07;83.33
25420;BME280;13354;48.174;11.566;2022-10-31T05:30:29;96152.72;;;12.02;83.96
25420;BME280;13354;48.174;11.566;2022-10-31T05:32:55;96148.59;;;12.00;84.43
25420;BME280;13354;48.174;11.566;2022-10-31T05:35:29;96146.59;;;12.02;84.53
25420;BME280;13354;48.174;11.566;2022-10-31T05:37:55;96141.09;;;12.03;84.45
25420;BME280;13354;48.174;11.566;2022-10-31T05:40:21;96146.59;;;12.02;84.02
25420;BME280;13354;48.174;11.566;2022-10-31T05:42:47;96147.41;;;12.02;83.82
25420;BME280;13354;48.174;11.566;2022-10-31T05:45:16;96150.88;;;12.03;83.84
25420;BME280;13354;48.174;11.566;2022-10-31T05:47:42;96146.34;;;11.97;84.02
25420;BME280;13354;48.174;11.566;2022-10-31T05:50:08;96148.34;;;11.95;84.52
25420;BME280;13354;48.174;11.566;2022-10-31T05:52:33;96144.50;;;11.97;84.49
25420;BME280;13354;48.174;11.566;2022-10-31T05:54:59;96147.53;;;11.94;83.83
25420;BME280;13354;48.174;11.566;2022-10-31T05:57:24;96142.38;;;11.86;84.25
25420;BME280;13354;48.174;11.566;2022-10-31T05:59:50;96148.19;;;11.81;83.96
25420;BME280;13354;48.174;11.566;2022-10-31T06:02:18;96146.75;;;11.79;83.77
25420;BME280;13354;48.174;11.566;2022-10-31T06:04:44;96146.53;;;11.80;83.66
25420;BME280;13354;48.174;11.566;2022-10-31T06:07:09;96148.94;;;11.75;84.00
25420;BME280;13354;48.174;11.566;2022-10-31T06:09:34;96142.88;;;11.81;84.64
25420;BME280;13354;48.174;11.566;2022-10-31T06:11:59;96145.06;;;11.78;84.19
25420;BME280;13354;48.174;11.566;2022-10-31T06:14:25;96145.72;;;11.80;84.49
25420;BME280;13354;48.174;11.566;2022-10-31T06:16:50;96153.44;;;11.75;84.86
25420;BME280;13354;48.174;11.566;2022-10-31T06:19:15;96150.59;;;11.76;84.99
25420;BME280;13354;48.174;11.566;2022-10-31T06:21:40;96150.59;;;11.76;85.32
25420;BME280;13354;48.174;11.566;2022-10-31T06:24:06;96159.09;;;11.87;85.62
25420;BME280;13354;48.174;11.566;2022-10-31T06:26:31;96158.53;;;11.91;85.71
25420;BME280;13354;48.174;11.566;2022-10-31T06:28:56;96157.50;;;11.92;85.43
25420;BME280;13354;48.174;11.566;2022-10-31T06:31:22;96163.09;;;11.97;85.15
25420;BME280;13354;48.174;11.566;2022-10-31T06:33:47;96155.28;;;11.96;84.88
25420;BME280;13354;48.174;11.566;2022-10-31T06:36:12;96159.22;;;12.00;85.09
25420;BME280;13354;48.174;11.566;2022-10-31T06:38:37;96153.53;;;12.03;85.07
25420;BME280;13354;48.174;11.566;2022-10-31T06:41:04;96150.50;;;12.06;84.53
25420;BME280;13354;48.174;11.566;2022-10-31T06:43:30;96143.72;;;12.03;84.46
25420;BME280;13354;48.174;11.566;2022-10-31T06:45:55;96142.91;;;12.24;84.66
25420;BME280;13354;48.174;11.566;2022-10-31T06:48:20;96152.41;;;12.33;84.58
25420;BME280;13354;48.174;11.566;2022-10-31T06:50:46;96153.41;;;12.32;84.43
25420;BME280;13354;48.174;11.566;2022-10-31T06:53:11;96150.56;;;12.34;84.19
25420;BME280;13354;48.174;11.566;2022-10-31T06:55:38;96149.78;;;12.40;83.78
25420;BME280;13354;48.174;11.566;2022-10-31T06:58:03;96158.97;;;12.38;83.62
25420;BME280;13354;48.174;11.566;2022-10-31T07:00:30;96157.63;;;12.48;83.54
25420;BME280;13354;48.174;11.566;2022-10-31T07:02:57;96163.31;;;12.45;83.83
25420;BME280;13354;48.174;11.566;2022-10-31T07:05:22;96168.00;;;12.43;84.34
25420;BME280;13354;48.174;11.566;2022-10-31T07:07:52;96162.69;;;12.43;84.79
25420;BME280;13354;48.174;11.566;2022-10-31T07:10:18;96165.41;;;12.50;84.93
25420;BME280;13354;48.174;11.566;2022-10-31T07:12:44;96163.19;;;12.53;84.69
25420;BME280;13354;48.174;11.566;2022-10-31T07:15:09;96163.41;;;12.58;85.15
25420;BME280;13354;48.174;11.566;2022-10-31T07:17:34;96169.97;;;12.63;85.37
25420;BME280;13354;48.174;11.566;2022-10-31T07:20:00;96160.22;;;12.70;85.33
25420;BME280;13354;48.174;11.566;2022-10-31T07:22:34;96159.69;;;12.81;84.83
25420;BME280;13354;48.174;11.566;2022-10-31T07:25:00;96163.31;;;13.01;84.67
25420;BME280;13354;48.174;11.566;2022-10-31T07:27:25;96160.50;;;13.10;83.99
25420;BME280;13354;48.174;11.566;2022-10-31T07:29:50;96162.91;;;13.33;86.62
25420;BME280;13354;48.174;11.566;2022-10-31T07:32:16;96156.84;;;13.45;86.45
25420;BME280;13354;48.174;11.566;2022-10-31T07:34:41;96153.00;;;13.61;84.76
25420;BME280;13354;48.174;11.566;2022-10-31T07:37:06;96161.84;;;13.75;84.67
25420;BME280;13354;48.174;11.566;2022-10-31T07:39:32;96155.31;;;13.77;82.64
25420;BME280;13354;48.174;11.566;2022-10-31T07:42:00;96156.78;;;13.87;82.35
25420;BME280;13354;48.174;11.566;2022-10-31T07:44:25;96155.16;;;13.99;81.73
25420;BME280;13354;48.174;11.566;2022-10-31T07:46:51;96151.28;;;14.08;81.19
25420;BME280;13354;48.174;11.566;2022-10-31T07:49:16;96157.06;;;14.18;80.69
25420;BME280;13354;48.174;11.566;2022-10-31T07:51:41;96157.06;;;14.25;79.55
25420;BME280;13354;48.174;11.566;2022-10-31T07:54:07;96151.13;;;14.30;79.38
25420;BME280;13354;48.174;11.566;2022-10-31T07:56:32;96148.03;;;14.39;79.34
25420;BME280;13354;48.174;11.566;2022-10-31T07:58:57;96149.09;;;14.45;79.33
25420;BME280;13354;48.174;11.566;2022-10-31T08:01:23;96148.31;;;14.51;79.17
25420;BME280;13354;48.174;11.566;2022-10-31T08:03:48;96146.47;;;14.58;78.77
25420;BME280;13354;48.174;11.566;2022-10-31T08:06:13;96142.16;;;14.70;78.15
25420;BME280;13354;48.174;11.566;2022-10-31T08:08:38;96145.63;;;14.78;78.23
25420;BME280;13354;48.174;11.566;2022-10-31T08:11:04;96140.69;;;14.88;78.01
25420;BME280;13354;48.174;11.566;2022-10-31T08:13:29;96133.28;;;15.03;77.74
25420;BME280;13354;48.174;11.566;2022-10-31T08:15:57;96139.63;;;15.02;77.98
25420;BME280;13354;48.174;11.566;2022-10-31T08:18:28;96135.94;;;15.03;78.45
25420;BME280;13354;48.174;11.566;2022-10-31T08:20:53;96132.00;;;15.12;78.57
25420;BME280;13354;48.174;11.566;2022-10-31T08:23:19;96132.53;;;15.41;78.20
25420;BME280;13354;48.174;11.566;2022-10-31T08:25:44;96119.09;;;15.74;78.16
25420;BME280;13354;48.174;11.566;2022-10-31T08:28:11;96123.34;;;16.20;76.86
25420;BME280;13354;48.174;11.566;2022-10-31T08:30:37;96112.44;;;16.72;74.11
25420;BME280;13354;48.174;11.566;2022-10-31T08:33:12;96124.53;;;16.99;72.49
25420;BME280;13354;48.174;11.566;2022-10-31T08:35:38;96111.41;;;17.53;70.65
25420;BME280;13354;48.174;11.566;2022-10-31T08:38:03;96113.78;;;17.79;68.69
25420;BME280;13354;48.174;11.566;2022-10-31T08:40:30;96112.28;;;18.25;67.54
25420;BME280;13354;48.174;11.566;2022-10-31T08:43:05;96106.66;;;18.80;66.34
25420;BME280;13354;48.174;11.566;2022-10-31T08:45:32;96109.56;;;19.02;65.24
25420;BME280;13354;48.174;11.566;2022-10-31T08:48:00;96104.91;;;19.10;64.75
25420;BME280;13354;48.174;11.566;2022-10-31T08:50:26;96096.84;;;19.33;63.14
25420;BME280;13354;48.174;11.566;2022-10-31T08:52:52;96099.44;;;19.68;62.99
25420;BME280;13354;48.174;11.566;2022-10-31T08:55:17;96097.50;;;19.92;60.97
25420;BME280;13354;48.174;11.566;2022-10-31T08:57:42;96089.44;;;20.09;60.04
25420;BME280;13354;48.174;11.566;2022-10-31T09:00:08;96099.38;;;20.54;57.31
25420;BME280;13354;48.174;11.566;2022-10-31T09:02:33;96087.38;;;20.62;57.44
25420;BME280;13354;48.174;11.566;2022-10-31T09:04:59;96088.94;;;20.41;57.44
25420;BME280;13354;48.174;11.566;2022-10-31T09:07:24;96089.00;;;20.80;57.28
25420;BME280;13354;48.174;11.566;2022-10-31T09:09:50;96086.53;;;20.95;56.32
25420;BME280;13354;48.174;11.566;2022-10-31T09:12:15;96080.38;;;21.16;55.31
25420;BME280;13354;48.174;11.566;2022-10-31T09:14:40;96071.78;;;21.58;53.62
25420;BME280;13354;48.174;11.566;2022-10-31T09:17:06;96066.00;;;21.71;53.31
25420;BME280;13354;48.174;11.566;2022-10-31T09:19:31;96060.88;;;21.70;53.27
25420;BME280;13354;48.174;11.566;2022-10-31T09:21:56;96066.47;;;21.90;53.38
25420;BME280;13354;48.174;11.566;2022-10-31T09:24:22;96063.94;;;21.35;53.73
25420;BME280;13354;48.174;11.566;2022-10-31T09:26:47;96065.97;;;21.06;54.15
25420;BME280;13354;48.174;11.566;2022-10-31T09:29:12;96061.22;;;21.13;54.46
25420;BME280;13354;48.174;11.566;2022-10-31T09:31:38;96059.41;;;20.80;54.28
25420;BME280;13354;48.174;11.566;2022-10-31T09:34:03;96055.44;;;20.65;55.12
25420;BME280;13354;48.174;11.566;2022-10-31T09:36:29;96043.34;;;20.85;54.24
25420;BME280;13354;48.174;11.566;2022-10-31T09:38:54;96055.34;;;20.77;54.28
25420;BME280;13354;48.174;11.566;2022-10-31T09:41:28;96054.34;;;21.00;53.55
25420;BME280;13354;48.174;11.566;2022-10-31T09:46:55;96045.81;;;21.08;53.59
25420;BME280;13354;48.174;11.566;2022-10-31T09:49:32;96048.81;;;20.90;53.35
25420;BME280;13354;48.174;11.566;2022-10-31T09:52:10;96052.75;;;21.04;52.54
25420;BME280;13354;48.174;11.566;2022-10-31T09:54:41;96048.81;;;21.12;52.13
25420;BME280;13354;48.174;11.566;2022-10-31T09:57:12;96043.94;;;20.70;52.39
25420;BME280;13354;48.174;11.566;2022-10-31T09:59:41;96045.34;;;20.56;52.19
25420;BME280;13354;48.174;11.566;2022-10-31T10:02:25;96044.66;;;20.32;52.78
25420;BME280;13354;48.174;11.566;2022-10-31T10:04:58;96042.06;;;20.37;52.77
25420;BME280;13354;48.174;11.566;2022-10-31T10:07:44;96040.19;;;20.37;53.83
25420;BME280;13354;48.174;11.566;2022-10-31T10:13:29;96039.06;;;20.50;54.31
25420;BME280;13354;48.174;11.566;2022-10-31T10:16:09;96030.81;;;20.73;52.22
25420;BME280;13354;48.174;11.566;2022-10-31T10:18:52;96034.38;;;20.79;52.69
25420;BME280;13354;48.174;11.566;2022-10-31T10:21:25;96032.00;;;20.83;51.73
25420;BME280;13354;48.174;11.566;2022-10-31T10:26:38;96030.56;;;21.14;50.70
25420;BME280;13354;48.174;11.566;2022-10-31T10:31:49;96035.25;;;21.23;50.71
25420;BME280;13354;48.174;11.566;2022-10-31T10:34:24;96023.97;;;21.27;50.58
25420;BME280;13354;48.174;11.566;2022-10-31T10:37:09;96021.78;;;21.45;49.87
25420;BME280;13354;48.174;11.566;2022-10-31T10:39:41;96021.34;;;21.54;49.70
25420;BME280;13354;48.174;11.566;2022-10-31T10:42:15;96015.75;;;21.60;49.99
25420;BME280;13354;48.174;11.566;2022-10-31T10:45:06;96011.00;;;21.67;50.72
25420;BME280;13354;48.174;11.566;2022-10-31T10:48:01;96012.91;;;21.72;51.31
25420;BME280;13354;48.174;11.566;2022-10-31T10:50:34;96007.09;;;21.80;50.86
25420;BME280;13354;48.174;11.566;2022-10-31T10:58:31;96004.78;;;21.40;50.78
25420;BME280;13354;48.174;11.566;2022-10-31T11:00:56;95999.06;;;21.58;50.33
25420;BME280;13354;48.174;11.566;2022-10-31T11:03:21;95999.91;;;21.64;50.56
25420;BME280;13354;48.174;11.566;2022-10-31T11:05:50;95994.81;;;21.40;51.69
25420;BME280;13354;48.174;11.566;2022-10-31T11:08:25;95990.75;;;21.38;50.93
25420;BME280;13354;48.174;11.566;2022-10-31T11:11:24;95985.16;;;21.44;50.31
25420;BME280;13354;48.174;11.566;2022-10-31T11:14:00;95986.75;;;21.40;50.98
25420;BME280;13354;48.174;11.566;2022-10-31T11:16:44;95980.63;;;21.28;49.13
25420;BME280;13354;48.174;11.566;2022-10-31T11:19:22;95976.06;;;21.29;50.14
25420;BME280;13354;48.174;11.566;2022-10-31T11:21:48;95977.78;;;21.35;50.44
25420;BME280;13354;48.174;11.566;2022-10-31T11:24:16;95974.69;;;21.26;51.55
25420;BME280;13354;48.174;11.566;2022-10-31T11:26:45;95974.97;;;21.25;51.69
25420;BME280;13354;48.174;11.566;2022-10-31T11:31:39;95958.03;;;21.29;51.75
25420;BME280;13354;48.174;11.566;2022-10-31T11:34:11;95962.53;;;21.45;51.45
25420;BME280;13354;48.174;11.566;2022-10-31T11:36:39;95956.69;;;21.54;51.62
25420;BME280;13354;48.174;11.566;2022-10-31T11:39:16;95946.69;;;21.76;51.36
25420;BME280;13354;48.174;11.566;2022-10-31T11:41:43;95960.19;;;21.81;49.95
25420;BME280;13354;48.174;11.566;2022-10-31T11:44:15;95945.34;;;21.79;49.70
25420;BME280;13354;48.174;11.566;2022-10-31T11:47:26;95946.16;;;21.79;48.75
25420;BME280;13354;48.174;11.566;2022-10-31T11:49:36;95935.84;;;21.71;48.88
25420;BME280;13354;48.174;11.566;2022-10-31T11:52:14;95935.13;;;21.81;47.76
25420;BME280;13354;48.174;11.566;2022-10-31T11:54:50;95939.34;;;22.04;47.35
25420;BME280;13354;48.174;11.566;2022-10-31T11:57:43;95928.06;;;22.39;45.71
25420;BME280;13354;48.174;11.566;2022-10-31T12:00:28;95930.97;;;22.32;45.79
25420;BME280;13354;48.174;11.566;2022-10-31T12:05:42;95929.06;;;21.95;46.21
25420;BME280;13354;48.174;11.566;2022-10-31T12:08:11;95925.16;;;21.81;45.82
25420;BME280;13354;48.174;11.566;2022-10-31T12:13:33;95921.78;;;21.37;47.31
25420;BME280;13354;48.174;11.566;2022-10-31T12:16:04;95919.09;;;21.37;47.49
25420;BME280;13354;48.174;11.566;2022-10-31T12:21:16;95910.09;;;21.04;48.50
25420;BME280;13354;48.174;11.566;2022-10-31T12:24:04;95914.88;;;20.75;49.48
25420;BME280;13354;48.174;11.566;2022-10-31T12:27:01;95906.94;;;20.85;49.51
25420;BME280;13354;48.174;11.566;2022-10-31T12:29:51;95903.78;;;20.93;49.56
25420;BME280;13354;48.174;11.566;2022-10-31T12:32:52;95908.63;;;20.91;49.86
25420;BME280;13354;48.174;11.566;2022-10-31T12:45:55;95907.16;;;20.84;51.48
25420;BME280;13354;48.174;11.566;2022-10-31T12:51:56;95901.25;;;21.09;51.21
25420;BME280;13354;48.174;11.566;2022-10-31T13:00:02;95872.56;;;21.19;50.76
25420;BME280;13354;48.174;11.566;2022-10-31T13:05:31;95869.47;;;21.60;50.12
25420;BME280;13354;48.174;11.566;2022-10-31T13:08:06;95853.50;;;21.85;49.46
25420;BME280;13354;48.174;11.566;2022-10-31T13:13:07;95851.78;;;22.11;49.50
25420;BME280;13354;48.174;11.566;2022-10-31T13:15:48;95852.16;;;22.25;48.83
25420;BME280;13354;48.174;11.566;2022-10-31T13:18:23;95849.66;;;22.13;49.70
25420;BME280;13354;48.174;11.566;2022-10-31T13:20:52;95850.78;;;22.17;49.18
25420;BME280;13354;48.174;11.566;2022-10-31T13:23:27;95851.41;;;21.92;50.02
25420;BME280;13354;48.174;11.566;2022-10-31T13:25:54;95841.34;;;21.83;49.86
25420;BME280;13354;48.174;11.566;2022-10-31T13:31:12;95843.84;;;21.57;51.14
25420;BME280;13354;48.174;11.566;2022-10-31T13:33:43;95841.94;;;21.53;50.74
25420;BME280;13354;48.174;11.566;2022-10-31T13:36:30;95843.84;;;21.57;50.97
25420;BME280;13354;48.174;11.566;2022-10-31T13:39:31;95833.72;;;21.37;51.81
25420;BME280;13354;48.174;11.566;2022-10-31T13:42:22;95834.38;;;21.22;52.07
25420;BME280;13354;48.174;11.566;2022-10-31T13:44:49;95835.34;;;21.38;51.57
25420;BME280;13354;48.174;11.566;2022-10-31T13:47:24;95826.81;;;21.19;52.14
25420;BME280;13354;48.174;11.566;2022-10-31T13:49:50;95831.06;;;21.15;52.20
25420;BME280;13354;48.174;11.566;2022-10-31T13:52:23;95827.50;;;21.10;53.01
25420;BME280;13354;48.174;11.566;2022-10-31T13:54:50;95832.81;;;20.99;53.47
25420;BME280;13354;48.174;11.566;2022-10-31T13:57:37;95826.69;;;20.82;54.13
25420;BME280;13354;48.174;11.566;2022-10-31T14:00:24;95828.59;;;20.82;54.44
25420;BME280;13354;48.174;11.566;2022-10-31T14:02:56;95822.22;;;20.66;55.75
25420;BME280;13354;48.174;11.566;2022-10-31T14:05:32;95822.16;;;20.61;56.41
25420;BME280;13354;48.174;11.566;2022-10-31T14:08:01;95818.53;;;20.50;57.09
25420;BME280;13354;48.174;11.566;2022-10-31T14:10:33;95816.16;;;20.54;57.62
25420;BME280;13354;48.174;11.566;2022-10-31T14:13:18;95815.13;;;20.38;58.55
25420;BME280;13354;48.174;11.566;2022-10-31T14:15:59;95813.00;;;20.40;58.69
25420;BME280;13354;48.174;11.566;2022-10-31T14:18:32;95811.88;;;20.36;59.57
25420;BME280;13354;48.174;11.566;2022-10-31T14:20:58;95808.81;;;20.49;59.48
25420;BME280;13354;48.174;11.566;2022-10-31T14:28:52;95798.75;;;20.61;59.68